createdAt,value
2017-05-03T00:00:02.312Z,7.79
2017-05-03T00:15:02.472Z,7.83
2017-05-03T00:30:02.249Z,7.86
2017-05-03T00:45:02.559Z,7.86
2017-05-03T01:00:02.203Z,7.87
2017-05-03T01:15:02.248Z,7.85
2017-05-03T01:30:02.245Z,7.78
2017-05-03T01:45:02.734Z,7.72
2017-05-03T02:00:02.955Z,7.62
2017-05-03T02:15:02.358Z,7.53
2017-05-03T02:30:02.354Z,7.48
2017-05-03T02:45:02.890Z,7.48
2017-05-03T03:00:02.464Z,7.53
2017-05-03T03:15:02.123Z,7.55
2017-05-03T03:30:02.829Z,7.55
2017-05-03T03:45:02.718Z,7.56
2017-05-03T04:00:02.303Z,7.57
2017-05-03T04:15:02.911Z,7.6
2017-05-03T04:30:02.765Z,7.63
2017-05-03T04:45:02.202Z,7.68
2017-05-03T05:00:02.526Z,7.73
2017-05-03T05:15:02.331Z,7.74
2017-05-03T05:30:02.958Z,7.79
2017-05-03T05:45:02.452Z,7.87
2017-05-03T06:00:02.904Z,7.92
2017-05-03T06:15:02.634Z,8.04
2017-05-03T06:30:02.950Z,8.13
2017-05-03T06:45:02.344Z,8.29
2017-05-03T07:00:02.557Z,8.95
2017-05-03T07:15:02.197Z,9.25
2017-05-03T07:30:02.998Z,9.59
2017-05-03T07:45:02.470Z,11.74
2017-05-03T08:00:02.274Z,13.19
2017-05-03T08:15:02.548Z,14.77
2017-05-03T08:30:02.206Z,13.43
2017-05-03T08:45:02.737Z,13.29
2017-05-03T09:00:02.858Z,15.37
2017-05-03T09:15:02.886Z,16.8
2017-05-03T09:30:02.399Z,17.24
2017-05-03T09:45:02.852Z,18.05
2017-05-03T10:00:02.839Z,17.74
2017-05-03T10:15:02.582Z,16.87
2017-05-03T10:30:02.676Z,15.98
2017-05-03T10:45:02.938Z,16.27
2017-05-03T11:00:02.698Z,15.88
2017-05-03T11:15:02.363Z,15.81
2017-05-03T11:30:02.448Z,16.27
2017-05-03T11:45:02.614Z,15.95
2017-05-03T12:00:03.082Z,15.67
2017-05-03T12:15:02.845Z,16.48
2017-05-03T12:30:02.370Z,17.55
2017-05-03T12:45:02.443Z,17.36
2017-05-03T13:00:02.154Z,16.74
2017-05-03T13:15:02.669Z,17.13
2017-05-03T13:30:03.081Z,17.04
2017-05-03T13:45:02.384Z,16.62
2017-05-03T14:00:02.792Z,16.47
2017-05-03T14:15:02.492Z,16.74
2017-05-03T14:30:02.442Z,16.22
2017-05-03T14:45:02.309Z,15.76
2017-05-03T15:00:03.120Z,15.67
2017-05-03T15:15:02.470Z,15.53
2017-05-03T15:30:03.105Z,15.43
2017-05-03T15:45:02.876Z,15.22
2017-05-03T16:00:02.810Z,15.06
2017-05-03T16:15:02.343Z,14.87
2017-05-03T16:30:02.802Z,14.65
2017-05-03T16:45:02.271Z,14.52
2017-05-03T17:00:02.737Z,14.3
2017-05-03T17:15:02.300Z,14.08
2017-05-03T17:30:02.349Z,13.86
2017-05-03T17:45:02.892Z,13.73
2017-05-03T18:00:02.334Z,13.56
2017-05-03T18:15:02.625Z,13.35
2017-05-03T18:30:02.422Z,13.18
2017-05-03T18:45:02.894Z,12.99
2017-05-03T19:00:02.428Z,12.85
2017-05-03T19:15:02.943Z,12.75
2017-05-03T19:30:02.825Z,12.62
2017-05-03T19:45:02.200Z,12.5
2017-05-03T20:00:02.381Z,12.38
2017-05-03T20:15:02.931Z,12.23
2017-05-03T20:30:02.191Z,12.06
2017-05-03T20:45:02.405Z,11.79
2017-05-03T21:00:02.898Z,11.59
2017-05-03T21:15:02.491Z,11.38
2017-05-03T21:30:02.642Z,11.07
2017-05-03T21:45:03.095Z,10.79
2017-05-03T22:00:02.846Z,10.55
2017-05-03T22:15:02.704Z,10.38
2017-05-03T22:30:02.691Z,10.15
2017-05-03T22:45:03.053Z,9.98
2017-05-03T23:00:03.107Z,9.82
2017-05-03T23:15:02.733Z,9.68
2017-05-03T23:30:02.907Z,9.56
2017-05-03T23:45:02.242Z,9.48
